Time;durP1;ratioP1;P1;durP2;ratioP2;P2;SDS_P1;SDS_P2;PMS_P1;PMS_P2;Temp;Humidity;BMP_temperature;BMP_pressure;BME280_temperature;BME280_humidity;BME280_pressure;Samples;Min_cycle;Max_cycle;Signal;HPM_P1;HPM_P2
2022/04/10 00:00:49;;;;;;;3.47;1.43;;;3.40;99.90;;;;;;5023767;28;20197;-69
2022/04/10 00:03:15;;;;;;;3.70;1.40;;;3.40;99.90;;;;;;5031113;28;20274;-72
2022/04/10 00:05:40;;;;;;;3.20;1.63;;;3.50;99.90;;;;;;5023424;28;20266;-71
2022/04/10 00:08:06;;;;;;;3.37;1.90;;;3.50;99.90;;;;;;5026418;28;20281;-69
2022/04/10 00:10:33;;;;;;;4.10;1.83;;;3.50;99.90;;;;;;5005123;28;20201;-72
2022/04/10 00:12:58;;;;;;;2.17;1.50;;;3.60;99.90;;;;;;5023219;28;20651;-69
2022/04/10 00:15:24;;;;;;;2.80;1.50;;;3.60;99.90;;;;;;5005243;28;20193;-72
2022/04/10 00:17:50;;;;;;;5.37;1.80;;;3.60;99.90;;;;;;5022150;28;20194;-68
2022/04/10 00:20:15;;;;;;;5.40;1.80;;;3.60;99.90;;;;;;5022985;28;20183;-69
2022/04/10 00:22:43;;;;;;;3.40;1.53;;;3.60;99.90;;;;;;5025022;28;20271;-70
2022/04/10 00:25:11;;;;;;;4.63;1.80;;;3.60;99.90;;;;;;5030417;28;20193;-70
2022/04/10 00:27:37;;;;;;;2.10;1.40;;;3.60;99.90;;;;;;5027978;28;20354;-70
2022/04/10 00:30:03;;;;;;;5.13;1.50;;;3.50;99.90;;;;;;5022424;28;20286;-69
2022/04/10 00:32:29;;;;;;;3.30;1.57;;;3.60;99.90;;;;;;5022256;28;20206;-69
2022/04/10 00:34:55;;;;;;;3.13;1.77;;;3.60;99.90;;;;;;5022978;28;20190;-68
2022/04/10 00:37:20;;;;;;;4.93;1.57;;;3.60;99.90;;;;;;5004084;28;20186;-70
2022/04/10 00:39:46;;;;;;;5.03;1.50;;;3.60;99.90;;;;;;5005025;28;20282;-68
2022/04/10 00:42:12;;;;;;;3.37;1.63;;;3.60;99.90;;;;;;5027220;28;20670;-72
2022/04/10 00:44:37;;;;;;;1.97;1.47;;;3.60;99.90;;;;;;5029271;28;20209;-70
2022/04/10 00:47:05;;;;;;;3.70;1.43;;;3.60;99.90;;;;;;5027216;28;20212;-71
2022/04/10 00:49:31;;;;;;;5.67;2.00;;;3.60;99.90;;;;;;5023051;28;20252;-70
2022/04/10 00:51:58;;;;;;;4.30;1.83;;;3.60;99.90;;;;;;5026649;28;20197;-69
2022/04/10 00:54:25;;;;;;;3.03;1.67;;;3.60;99.90;;;;;;5024026;28;20592;-68
2022/04/10 00:56:51;;;;;;;5.37;1.80;;;3.70;99.90;;;;;;5026833;28;20187;-71
2022/04/10 00:59:16;;;;;;;4.43;1.90;;;3.80;99.90;;;;;;5021209;28;20206;-71
2022/04/10 01:01:47;;;;;;;3.33;2.00;;;3.80;99.90;;;;;;5028261;28;20219;-71
2022/04/10 01:04:14;;;;;;;4.80;2.10;;;3.70;99.90;;;;;;5021831;28;20421;-71
2022/04/10 01:06:40;;;;;;;3.90;2.00;;;3.80;99.90;;;;;;5020822;28;20194;-69
2022/04/10 01:09:06;;;;;;;7.23;2.30;;;3.70;99.90;;;;;;5003901;28;20226;-70
2022/04/10 01:11:36;;;;;;;4.33;2.37;;;3.70;99.90;;;;;;5021682;28;20195;-71
2022/04/10 01:14:04;;;;;;;5.33;1.97;;;3.70;99.90;;;;;;5026703;28;20244;-72
2022/04/10 01:16:33;;;;;;;4.90;2.20;;;3.80;99.90;;;;;;5024307;28;20236;-69
2022/04/10 01:19:02;;;;;;;6.17;2.93;;;3.80;99.90;;;;;;5020662;28;20218;-70
2022/04/10 01:21:28;;;;;;;3.57;2.23;;;3.80;99.90;;;;;;5021880;28;20215;-71
2022/04/10 01:23:56;;;;;;;3.13;2.03;;;3.80;99.90;;;;;;5023411;28;20191;-70
2022/04/10 01:26:23;;;;;;;8.00;3.13;;;3.70;99.90;;;;;;5005018;28;20183;-70
2022/04/10 01:29:15;;;;;;;5.07;2.60;;;3.70;99.90;;;;;;5014636;28;20214;-71
2022/04/10 01:31:43;;;;;;;4.27;2.57;;;3.70;99.90;;;;;;5026757;28;20198;-70
2022/04/10 01:34:13;;;;;;;4.17;2.20;;;3.70;99.90;;;;;;5031112;28;20186;-72
2022/04/10 01:36:39;;;;;;;5.73;2.60;;;3.70;99.90;;;;;;5025599;28;20187;-72
2022/04/10 01:39:07;;;;;;;4.97;2.33;;;3.70;99.90;;;;;;5018579;28;20242;-69
2022/04/10 01:41:36;;;;;;;3.97;2.30;;;3.70;99.90;;;;;;5026965;28;20210;-72
2022/04/10 01:44:06;;;;;;;5.67;2.10;;;3.70;99.90;;;;;;5017382;28;20203;-69
2022/04/10 01:46:33;;;;;;;3.73;2.03;;;3.70;99.90;;;;;;5034681;28;20195;-70
2022/04/10 01:48:59;;;;;;;5.53;2.57;;;3.70;99.90;;;;;;5032092;28;20300;-71
2022/04/10 01:51:25;;;;;;;5.40;2.60;;;3.60;99.90;;;;;;5032028;28;20275;-71
2022/04/10 01:53:52;;;;;;;6.80;3.20;;;3.60;99.90;;;;;;5032652;28;20305;-69
2022/04/10 01:56:19;;;;;;;4.17;2.13;;;3.60;99.90;;;;;;5034316;28;20241;-70
2022/04/10 01:58:46;;;;;;;4.43;2.03;;;3.50;99.90;;;;;;5034035;28;20223;-69
2022/04/10 02:01:14;;;;;;;3.00;1.97;;;3.60;99.90;;;;;;5034182;28;20221;-71
2022/04/10 02:03:40;;;;;;;2.20;1.70;;;3.50;99.90;;;;;;5031061;28;20285;-71
2022/04/10 02:06:08;;;;;;;3.53;2.33;;;3.60;99.90;;;;;;5035330;28;20178;-72
2022/04/10 02:08:37;;;;;;;3.07;1.93;;;3.60;99.90;;;;;;5029371;28;20206;-72
2022/04/10 02:11:13;;;;;;;4.77;2.23;;;3.60;99.90;;;;;;5028155;28;20190;-71
2022/04/10 02:13:39;;;;;;;4.90;2.80;;;3.50;99.90;;;;;;5010573;28;20205;-70
2022/04/10 02:16:08;;;;;;;4.60;2.10;;;3.50;99.90;;;;;;5023366;28;20190;-68
2022/04/10 02:18:34;;;;;;;4.43;2.30;;;3.50;99.90;;;;;;5032315;28;20206;-69
2022/04/10 02:20:59;;;;;;;5.67;3.17;;;3.40;99.90;;;;;;5036101;28;20665;-69
2022/04/10 02:23:25;;;;;;;5.50;2.60;;;3.30;99.90;;;;;;5033835;28;20265;-72
2022/04/10 02:25:51;;;;;;;4.60;2.40;;;3.30;99.90;;;;;;5032460;28;20190;-71
2022/04/10 02:28:17;;;;;;;4.17;2.20;;;3.20;99.90;;;;;;5017131;28;20202;-71
2022/04/10 02:30:42;;;;;;;5.30;2.77;;;3.20;99.90;;;;;;5038686;28;20191;-71
2022/04/10 02:33:08;;;;;;;6.07;2.23;;;3.10;99.90;;;;;;5026590;28;20198;-70
2022/04/10 02:35:33;;;;;;;7.17;2.30;;;3.10;99.90;;;;;;5028586;28;20621;-71
2022/04/10 02:37:59;;;;;;;6.07;3.03;;;3.10;99.90;;;;;;5029793;28;20183;-68
2022/04/10 02:40:25;;;;;;;5.47;3.03;;;3.10;99.90;;;;;;5027148;28;20252;-68
2022/04/10 02:42:50;;;;;;;6.00;2.83;;;3.10;99.90;;;;;;5027406;28;20217;-71
2022/04/10 02:45:16;;;;;;;5.67;3.37;;;3.20;99.90;;;;;;5033812;28;20194;-70
2022/04/10 02:47:42;;;;;;;6.60;2.60;;;3.10;99.90;;;;;;5009297;28;20776;-69
2022/04/10 02:50:08;;;;;;;5.60;2.50;;;3.10;99.90;;;;;;5009743;28;20207;-70
2022/04/10 02:52:34;;;;;;;6.30;2.80;;;3.20;99.90;;;;;;5026806;28;20198;-72
2022/04/10 02:54:59;;;;;;;3.57;2.37;;;3.10;99.90;;;;;;5036265;28;20643;-69
2022/04/10 02:57:25;;;;;;;4.23;2.60;;;3.10;99.90;;;;;;5035962;28;20681;-69
2022/04/10 02:59:51;;;;;;;4.77;2.40;;;3.00;99.90;;;;;;5039072;28;20207;-71
2022/04/10 03:02:17;;;;;;;5.73;2.93;;;3.00;99.90;;;;;;5030502;28;20238;-72
2022/04/10 03:04:42;;;;;;;6.83;3.47;;;3.00;99.90;;;;;;5029532;28;20191;-69
2022/04/10 03:07:08;;;;;;;9.60;3.43;;;3.00;99.90;;;;;;5011190;28;20264;-72
2022/04/10 03:09:34;;;;;;;5.87;3.27;;;3.10;99.90;;;;;;5027584;28;20218;-71
2022/04/10 03:11:59;;;;;;;5.37;2.73;;;3.10;99.90;;;;;;5026610;28;20663;-71
2022/04/10 03:14:25;;;;;;;5.80;3.73;;;3.10;99.90;;;;;;5034231;28;20220;-71
2022/04/10 03:16:51;;;;;;;4.27;3.00;;;3.20;99.90;;;;;;5035663;28;20251;-70
2022/04/10 03:19:16;;;;;;;5.27;2.90;;;3.30;99.90;;;;;;5038199;28;20211;-69
2022/04/10 03:21:42;;;;;;;6.00;3.00;;;3.30;99.90;;;;;;5026532;28;20214;-70
2022/04/10 03:24:08;;;;;;;7.10;3.20;;;3.30;99.90;;;;;;5034403;28;20190;-71
2022/04/10 03:26:34;;;;;;;7.53;3.00;;;3.30;99.90;;;;;;5036766;28;20194;-71
2022/04/10 03:28:59;;;;;;;7.47;3.33;;;3.30;99.90;;;;;;5031054;28;20217;-70
2022/04/10 03:31:25;;;;;;;4.90;2.60;;;3.20;99.90;;;;;;5026631;28;20197;-69
2022/04/10 03:33:51;;;;;;;7.23;2.67;;;3.20;99.90;;;;;;5026739;28;20194;-68
2022/04/10 03:36:17;;;;;;;9.60;2.23;;;3.20;99.90;;;;;;5025925;28;20190;-71
2022/04/10 03:38:43;;;;;;;3.83;2.00;;;3.00;99.90;;;;;;5026728;28;20206;-71
2022/04/10 03:41:09;;;;;;;5.47;2.50;;;3.00;99.90;;;;;;5014212;28;20206;-69
2022/04/10 03:43:35;;;;;;;9.60;3.47;;;3.00;99.90;;;;;;5031083;28;20213;-70
2022/04/10 03:46:01;;;;;;;7.60;3.13;;;3.10;99.90;;;;;;5011584;28;21107;-71
2022/04/10 03:48:28;;;;;;;7.03;2.90;;;3.20;99.90;;;;;;5030057;28;20199;-70
2022/04/10 03:50:53;;;;;;;6.57;2.87;;;3.20;99.90;;;;;;5025760;28;20187;-69
2022/04/10 03:53:19;;;;;;;5.27;3.13;;;3.30;99.90;;;;;;5029001;28;20593;-69
2022/04/10 03:55:45;;;;;;;6.07;2.90;;;3.30;99.90;;;;;;5032527;28;20175;-71
2022/04/10 03:58:10;;;;;;;7.13;2.70;;;3.40;99.90;;;;;;5024262;28;20576;-72
2022/04/10 04:00:36;;;;;;;6.50;2.40;;;3.40;99.90;;;;;;5026206;28;20198;-71
2022/04/10 04:03:02;;;;;;;5.17;2.43;;;3.30;99.90;;;;;;5025264;28;20214;-71
2022/04/10 04:05:28;;;;;;;5.63;2.37;;;3.40;99.90;;;;;;5025624;28;20189;-71
2022/04/10 04:07:54;;;;;;;8.13;2.83;;;3.40;99.90;;;;;;5016530;28;20244;-73
2022/04/10 04:10:20;;;;;;;7.87;1.90;;;3.40;99.90;;;;;;5013372;28;20183;-71
2022/04/10 04:12:46;;;;;;;8.90;2.50;;;3.40;99.90;;;;;;5035314;28;20187;-70
2022/04/10 04:15:11;;;;;;;4.13;2.07;;;3.40;99.90;;;;;;5036464;28;20183;-69
2022/04/10 04:17:38;;;;;;;6.30;2.83;;;3.50;99.90;;;;;;5035219;28;20187;-69
2022/04/10 04:20:08;;;;;;;4.47;2.17;;;3.40;99.90;;;;;;5017439;28;20215;-69
2022/04/10 04:22:37;;;;;;;3.87;2.00;;;3.50;99.90;;;;;;5037237;28;20275;-72
2022/04/10 04:25:09;;;;;;;7.23;2.10;;;3.50;99.90;;;;;;5028526;28;20236;-71
2022/04/10 04:27:34;;;;;;;6.03;2.17;;;3.50;99.90;;;;;;5027790;28;20187;-68
2022/04/10 04:30:03;;;;;;;6.73;2.40;;;3.50;99.90;;;;;;5036245;28;20255;-70
2022/04/10 04:32:29;;;;;;;5.03;2.10;;;3.50;99.90;;;;;;5035559;28;20186;-71
2022/04/10 04:34:54;;;;;;;5.47;2.17;;;3.50;99.90;;;;;;5012349;28;20240;-71
2022/04/10 04:37:20;;;;;;;9.60;2.30;;;3.50;99.90;;;;;;5015682;28;20543;-69
2022/04/10 04:39:45;;;;;;;4.20;2.00;;;3.40;99.90;;;;;;5033707;28;20214;-69
2022/04/10 04:42:11;;;;;;;7.87;2.60;;;3.30;99.90;;;;;;5035602;28;20213;-71
2022/04/10 04:44:37;;;;;;;7.60;2.53;;;3.30;99.90;;;;;;5018014;28;20197;-72
2022/04/10 04:47:02;;;;;;;3.80;2.30;;;3.20;99.90;;;;;;5035832;28;20194;-70
2022/04/10 04:49:28;;;;;;;5.27;1.87;;;3.20;99.90;;;;;;5024569;28;20241;-70
2022/04/10 04:51:54;;;;;;;5.20;2.20;;;3.30;99.90;;;;;;5037239;28;20269;-71
2022/04/10 04:54:20;;;;;;;8.53;2.60;;;3.40;99.90;;;;;;5029241;28;20329;-71
2022/04/10 04:56:45;;;;;;;8.90;3.00;;;3.40;99.90;;;;;;5035835;28;20305;-72
2022/04/10 04:59:14;;;;;;;4.43;2.60;;;3.40;99.90;;;;;;5028629;28;20197;-72
2022/04/10 05:01:41;;;;;;;7.07;2.10;;;3.40;99.90;;;;;;5031906;28;20238;-69
2022/04/10 05:04:07;;;;;;;3.93;2.40;;;3.50;99.90;;;;;;5026093;28;20626;-71
2022/04/10 05:06:33;;;;;;;6.33;2.37;;;3.50;99.90;;;;;;5030350;28;20182;-71
2022/04/10 05:08:59;;;;;;;4.97;2.10;;;3.40;99.90;;;;;;5039017;28;20478;-70
2022/04/10 05:11:25;;;;;;;6.50;2.10;;;3.40;99.90;;;;;;5030124;28;20214;-71
2022/04/10 05:13:51;;;;;;;4.13;2.07;;;3.50;99.90;;;;;;5027485;28;20182;-71
2022/04/10 05:16:17;;;;;;;6.40;2.33;;;3.50;99.90;;;;;;5028818;28;20187;-72
2022/04/10 05:18:42;;;;;;;6.33;2.20;;;3.60;99.90;;;;;;5027908;28;20246;-71
2022/04/10 05:21:08;;;;;;;5.77;1.90;;;3.70;99.90;;;;;;5030351;28;20257;-72
2022/04/10 05:23:34;;;;;;;10.23;2.40;;;3.80;99.90;;;;;;5017252;28;20179;-70
2022/04/10 05:25:59;;;;;;;6.27;2.37;;;3.90;99.90;;;;;;5034920;28;20193;-71
2022/04/10 05:28:25;;;;;;;5.50;2.30;;;4.00;99.90;;;;;;5035938;28;20226;-70
2022/04/10 05:30:51;;;;;;;4.40;1.93;;;4.10;99.90;;;;;;5035703;28;20237;-71
2022/04/10 05:33:16;;;;;;;4.47;1.80;;;4.00;99.90;;;;;;5030987;28;20257;-72
2022/04/10 05:35:42;;;;;;;4.17;2.20;;;4.00;99.90;;;;;;5035199;28;20188;-70
2022/04/10 05:38:08;;;;;;;6.87;2.00;;;4.10;99.90;;;;;;5032695;28;20220;-69
2022/04/10 05:40:34;;;;;;;4.80;2.10;;;4.00;99.90;;;;;;5037983;28;20213;-71
2022/04/10 05:43:00;;;;;;;5.77;1.97;;;3.80;99.90;;;;;;5017930;28;20649;-72
2022/04/10 05:45:26;;;;;;;6.37;2.47;;;3.80;99.90;;;;;;5035092;28;20171;-72
2022/04/10 05:47:52;;;;;;;5.93;1.70;;;3.80;99.90;;;;;;5032251;28;20590;-71
2022/04/10 05:50:18;;;;;;;4.23;2.00;;;3.90;99.90;;;;;;5019408;28;20189;-71
2022/04/10 05:52:50;;;;;;;7.10;2.17;;;3.90;99.90;;;;;;5034461;28;20450;-71
2022/04/10 05:55:17;;;;;;;5.60;2.27;;;3.90;99.90;;;;;;5033201;28;20700;-69
2022/04/10 05:57:44;;;;;;;6.17;1.77;;;3.80;99.90;;;;;;5027500;28;20194;-71
2022/04/10 06:00:12;;;;;;;5.07;2.20;;;3.80;99.90;;;;;;5016021;28;20211;-71
2022/04/10 06:02:39;;;;;;;7.73;1.93;;;3.80;99.90;;;;;;5028085;28;20242;-70
2022/04/10 06:05:05;;;;;;;6.63;2.20;;;3.80;99.90;;;;;;5027322;28;20217;-73
2022/04/10 06:07:31;;;;;;;5.33;2.07;;;3.80;99.90;;;;;;5036916;28;20655;-68
2022/04/10 06:09:58;;;;;;;7.70;2.57;;;3.80;99.90;;;;;;5026010;28;20214;-70
2022/04/10 06:12:24;;;;;;;9.67;2.00;;;3.70;99.90;;;;;;5025433;28;20178;-69
2022/04/10 06:14:50;;;;;;;5.73;1.87;;;3.80;99.90;;;;;;5023966;28;20281;-72
2022/04/10 06:17:16;;;;;;;4.70;1.80;;;3.90;99.90;;;;;;5030003;28;20265;-70
2022/04/10 06:19:41;;;;;;;5.97;2.10;;;4.10;99.90;;;;;;5023755;28;20705;-69
2022/04/10 06:22:08;;;;;;;7.60;2.10;;;4.20;99.90;;;;;;5009234;28;20211;-70
2022/04/10 06:24:35;;;;;;;3.50;1.87;;;4.40;99.90;;;;;;5030772;28;20189;-69
2022/04/10 06:27:00;;;;;;;3.47;1.90;;;4.60;99.90;;;;;;5030878;28;20182;-71
2022/04/10 06:29:26;;;;;;;4.70;2.50;;;4.60;99.90;;;;;;5033315;28;20207;-70
2022/04/10 06:31:52;;;;;;;5.00;2.50;;;5.10;99.90;;;;;;5033727;28;20186;-68
2022/04/10 06:34:18;;;;;;;4.80;1.77;;;5.20;99.90;;;;;;5037293;28;20178;-71
2022/04/10 06:36:44;;;;;;;5.23;2.73;;;5.00;99.90;;;;;;5030938;28;20296;-71
2022/04/10 06:39:09;;;;;;;5.20;2.00;;;5.00;99.90;;;;;;5037517;28;20211;-71
2022/04/10 06:41:35;;;;;;;6.47;2.00;;;5.00;99.90;;;;;;5030036;28;20211;-72
2022/04/10 06:44:01;;;;;;;3.43;1.80;;;5.10;99.90;;;;;;5010268;28;20533;-69
2022/04/10 06:46:27;;;;;;;6.50;1.90;;;5.00;99.90;;;;;;5026813;28;20183;-69
2022/04/10 06:48:54;;;;;;;8.13;2.50;;;5.00;99.90;;;;;;5026272;28;20752;-71
2022/04/10 06:51:21;;;;;;;6.77;2.07;;;5.10;99.90;;;;;;5026644;28;20187;-71
2022/04/10 06:53:48;;;;;;;3.73;1.97;;;5.10;99.90;;;;;;5014570;28;20195;-70
2022/04/10 06:56:14;;;;;;;5.27;1.77;;;5.10;99.90;;;;;;5026257;28;20175;-72
2022/04/10 06:58:40;;;;;;;5.77;2.00;;;5.20;99.90;;;;;;5025626;28;20751;-72
2022/04/10 07:01:06;;;;;;;7.20;2.47;;;5.30;99.90;;;;;;5025661;28;20191;-69
2022/04/10 07:03:32;;;;;;;4.57;1.87;;;5.40;99.90;;;;;;5026602;28;20576;-70
2022/04/10 07:05:57;;;;;;;3.10;1.90;;;5.60;99.90;;;;;;5034780;28;20190;-72
2022/04/10 07:08:23;;;;;;;5.47;1.90;;;5.60;99.90;;;;;;5024406;28;20214;-69
2022/04/10 07:10:49;;;;;;;5.33;2.43;;;5.50;99.90;;;;;;5026138;28;20609;-70
2022/04/10 07:13:18;;;;;;;7.40;2.07;;;5.60;99.90;;;;;;5026994;28;20187;-69
2022/04/10 07:15:45;;;;;;;4.17;1.97;;;5.80;99.90;;;;;;5036362;28;20190;-70
2022/04/10 07:18:11;;;;;;;4.77;2.37;;;5.80;99.90;;;;;;5025331;28;20293;-71
2022/04/10 07:20:36;;;;;;;4.80;2.43;;;5.90;99.90;;;;;;5008640;28;20321;-71
2022/04/10 07:25:46;;;;;;;3.10;1.40;;;6.30;99.90;;;;;;5026404;28;20186;-71
2022/04/10 07:28:12;;;;;;;5.60;2.37;;;6.30;99.90;;;;;;5032196;28;20191;-70
2022/04/10 07:30:38;;;;;;;6.67;1.50;;;6.20;99.90;;;;;;5015945;28;20182;-71
2022/04/10 07:33:04;;;;;;;3.97;1.93;;;6.10;99.90;;;;;;5032622;28;20752;-72
2022/04/10 07:35:29;;;;;;;7.63;2.10;;;6.10;99.90;;;;;;5024814;28;20194;-71
2022/04/10 07:37:55;;;;;;;4.43;1.90;;;6.10;99.90;;;;;;5012072;28;20708;-73
2022/04/10 07:40:22;;;;;;;4.60;1.73;;;6.10;99.90;;;;;;5026063;28;20228;-71
2022/04/10 07:42:47;;;;;;;5.03;1.90;;;6.20;99.90;;;;;;5027591;28;20306;-71
2022/04/10 07:47:25;;;;;;;3.83;1.27;;;6.30;99.90;;;;;;5008853;28;20266;-70
2022/04/10 07:48:01;;;;;;;4.67;1.80;;;6.20;99.90;;;;;;5024272;28;20186;-69
2022/04/10 07:50:28;;;;;;;5.43;1.70;;;6.30;99.90;;;;;;5026528;28;20706;-71
2022/04/10 07:52:55;;;;;;;3.47;1.50;;;6.30;99.90;;;;;;5025389;28;20210;-72
2022/04/10 07:55:22;;;;;;;3.87;1.60;;;6.40;99.90;;;;;;5026170;28;20632;-69
2022/04/10 07:57:51;;;;;;;4.37;1.67;;;6.50;99.90;;;;;;5027903;28;20187;-72
2022/04/10 08:00:17;;;;;;;4.57;1.73;;;6.40;99.90;;;;;;5023912;28;20233;-69
2022/04/10 08:02:46;;;;;;;5.47;1.80;;;6.60;99.90;;;;;;5026708;28;20238;-71
2022/04/10 08:05:15;;;;;;;5.83;1.93;;;6.90;99.90;;;;;;5034518;28;20187;-70
2022/04/10 08:07:41;;;;;;;4.93;1.70;;;7.10;99.90;;;;;;5029609;28;20202;-69
2022/04/10 08:10:08;;;;;;;7.97;1.50;;;7.30;99.90;;;;;;5029869;28;20202;-70
2022/04/10 08:12:33;;;;;;;5.57;1.97;;;7.00;99.90;;;;;;5023506;28;20187;-69
2022/04/10 08:14:59;;;;;;;3.37;1.40;;;7.00;99.90;;;;;;5030904;28;20197;-68
2022/04/10 08:17:25;;;;;;;3.10;1.73;;;7.20;99.90;;;;;;5026077;28;20189;-71
2022/04/10 08:19:51;;;;;;;3.47;1.90;;;7.30;99.90;;;;;;5030859;28;20206;-69
2022/04/10 08:22:25;;;;;;;4.23;1.47;;;7.50;99.90;;;;;;5000903;28;20217;-69
2022/04/10 08:24:53;;;;;;;3.73;1.60;;;7.60;99.90;;;;;;5031352;28;20182;-69
2022/04/10 08:27:22;;;;;;;3.87;1.33;;;7.40;99.90;;;;;;5032688;28;20282;-69
2022/04/10 08:29:47;;;;;;;3.30;1.43;;;7.30;99.90;;;;;;5015203;28;20207;-70
2022/04/10 08:32:14;;;;;;;4.80;1.63;;;7.40;99.90;;;;;;5035516;28;20185;-68
2022/04/10 08:34:42;;;;;;;9.07;2.50;;;7.40;99.90;;;;;;5013057;28;20190;-69
2022/04/10 08:37:08;;;;;;;7.27;2.00;;;7.50;99.90;;;;;;5025318;28;20305;-68
2022/04/10 08:39:35;;;;;;;4.53;1.77;;;7.50;99.90;;;;;;5034907;28;20205;-68
2022/04/10 08:42:05;;;;;;;3.47;1.43;;;7.40;99.90;;;;;;5011838;28;20546;-68
2022/04/10 08:44:36;;;;;;;2.73;1.87;;;7.50;99.90;;;;;;5032806;28;20631;-68
2022/04/10 08:47:03;;;;;;;2.93;1.67;;;7.40;99.90;;;;;;5010721;28;20185;-68
2022/04/10 08:49:31;;;;;;;4.73;1.77;;;7.40;99.90;;;;;;5010709;28;20208;-69
2022/04/10 08:51:58;;;;;;;4.43;1.87;;;7.60;99.90;;;;;;5030786;28;20256;-67
2022/04/10 08:54:28;;;;;;;5.40;2.13;;;7.60;99.90;;;;;;5030862;28;20270;-67
2022/04/10 08:56:57;;;;;;;2.87;1.17;;;7.70;99.90;;;;;;5028061;28;20179;-69
2022/04/10 08:59:22;;;;;;;4.57;1.30;;;7.80;99.90;;;;;;5022717;28;20211;-67
2022/04/10 09:01:53;;;;;;;3.63;1.40;;;7.80;99.90;;;;;;5027128;28;20213;-67
2022/04/10 09:04:20;;;;;;;2.73;1.27;;;7.50;99.90;;;;;;5029966;28;21362;-68
2022/04/10 09:07:09;;;;;;;3.30;1.40;;;7.70;99.90;;;;;;5010320;28;20286;-68
2022/04/10 09:09:37;;;;;;;3.80;1.23;;;7.80;99.90;;;;;;5027832;28;20571;-73
2022/04/10 09:12:03;;;;;;;4.40;1.60;;;8.10;99.90;;;;;;5025208;28;20646;-71
2022/04/10 09:14:36;;;;;;;5.80;1.57;;;8.40;99.90;;;;;;5026937;28;20682;-68
2022/04/10 09:17:19;;;;;;;4.47;1.03;;;8.70;99.90;;;;;;5027738;28;20189;-67
2022/04/10 09:19:50;;;;;;;4.83;2.00;;;8.80;99.90;;;;;;5031808;28;20281;-68
2022/04/10 09:22:30;;;;;;;3.20;1.00;;;9.00;99.90;;;;;;5029443;28;20211;-67
2022/04/10 09:25:13;;;;;;;4.60;1.40;;;8.90;99.90;;;;;;5007824;28;20187;-70
2022/04/10 09:27:41;;;;;;;3.40;1.53;;;9.00;99.90;;;;;;5021896;28;20654;-71
2022/04/10 09:30:09;;;;;;;3.30;1.63;;;9.10;99.90;;;;;;5021195;28;20599;-70
2022/04/10 09:32:52;;;;;;;3.47;1.23;;;8.90;99.90;;;;;;5021531;28;20191;-69
2022/04/10 09:35:19;;;;;;;3.00;1.07;;;9.00;99.90;;;;;;5022220;28;20222;-69
2022/04/10 09:37:45;;;;;;;1.80;1.13;;;9.10;99.90;;;;;;5023273;28;20194;-72
2022/04/10 09:40:24;;;;;;;1.50;0.90;;;9.40;99.90;;;;;;5002695;28;20221;-69
2022/04/10 09:43:04;;;;;;;2.67;1.03;;;9.20;99.90;;;;;;5021175;28;20210;-70
2022/04/10 09:45:44;;;;;;;2.57;0.90;;;9.00;99.90;;;;;;5013990;28;20190;-69
2022/04/10 09:48:22;;;;;;;4.17;0.90;;;9.00;99.90;;;;;;5025948;28;20260;-69
2022/04/10 09:50:51;;;;;;;1.50;0.80;;;9.10;99.90;;;;;;5024550;28;20236;-69
2022/04/10 09:53:18;;;;;;;2.13;1.00;;;9.00;99.90;;;;;;5021879;28;20248;-71
2022/04/10 09:55:44;;;;;;;3.67;1.00;;;7.90;99.90;;;;;;5023604;28;20197;-69
2022/04/10 09:58:11;;;;;;;3.60;1.23;;;7.20;99.90;;;;;;5028130;28;20206;-69
2022/04/10 10:00:39;;;;;;;3.63;1.50;;;7.50;99.90;;;;;;5025895;28;20659;-69
2022/04/10 10:03:06;;;;;;;2.20;1.07;;;8.20;99.90;;;;;;5013896;28;20217;-70
2022/04/10 10:05:33;;;;;;;5.03;1.97;;;8.60;99.90;;;;;;5030701;28;20182;-71
2022/04/10 10:08:00;;;;;;;4.07;1.90;;;8.70;99.90;;;;;;5027366;28;20223;-70
2022/04/10 10:10:29;;;;;;;4.33;1.53;;;8.50;99.90;;;;;;5007194;28;20183;-70
2022/04/10 10:12:56;;;;;;;2.97;1.20;;;8.70;99.90;;;;;;5027320;28;20558;-69
2022/04/10 10:15:22;;;;;;;3.33;1.50;;;8.90;99.90;;;;;;5025058;28;20182;-70
2022/04/10 10:17:48;;;;;;;5.37;1.30;;;9.00;99.90;;;;;;5029775;28;20190;-70
2022/04/10 10:20:14;;;;;;;3.97;1.40;;;8.90;99.90;;;;;;5030158;28;20210;-70
2022/04/10 10:22:40;;;;;;;2.73;1.27;;;9.10;99.90;;;;;;5029542;28;20221;-70
2022/04/10 10:25:11;;;;;;;4.33;1.40;;;9.30;99.90;;;;;;5024690;28;20237;-69
2022/04/10 10:27:42;;;;;;;2.87;1.40;;;9.40;99.90;;;;;;5029433;28;20217;-70
2022/04/10 10:30:10;;;;;;;1.23;1.13;;;9.20;99.90;;;;;;5032197;28;20218;-70
2022/04/10 10:32:45;;;;;;;1.67;0.87;;;8.80;99.90;;;;;;5030674;28;20288;-70
2022/04/10 10:35:26;;;;;;;2.63;0.73;;;8.30;99.90;;;;;;5028311;28;20193;-70
2022/04/10 10:37:53;;;;;;;3.47;1.20;;;8.20;99.90;;;;;;5034334;28;20206;-70
2022/04/10 10:40:21;;;;;;;3.43;0.97;;;8.30;99.90;;;;;;5006024;28;20193;-70
2022/04/10 10:42:50;;;;;;;1.80;0.70;;;7.50;99.90;;;;;;5013381;28;20313;-69
2022/04/10 10:45:41;;;;;;;2.33;1.17;;;6.70;99.90;;;;;;5025519;28;20472;-68
2022/04/10 10:48:35;;;;;;;5.10;2.87;;;6.40;99.90;;;;;;5014132;28;20192;-71
2022/04/10 10:51:41;;;;;;;2.53;1.17;;;6.30;99.90;;;;;;5022502;28;20234;-71
2022/04/10 10:54:11;;;;;;;3.20;1.20;;;6.40;99.90;;;;;;5021918;28;20217;-68
2022/04/10 10:56:42;;;;;;;3.83;1.20;;;7.10;99.90;;;;;;5023969;28;20194;-69
2022/04/10 10:59:27;;;;;;;4.20;1.17;;;7.70;99.90;;;;;;5023115;28;20249;-68
2022/04/10 11:02:01;;;;;;;3.03;1.07;;;8.30;99.90;;;;;;5024932;28;20273;-69
2022/04/10 11:04:32;;;;;;;2.47;0.90;;;8.70;99.90;;;;;;5023156;28;20204;-68
2022/04/10 11:07:13;;;;;;;2.47;1.10;;;8.90;99.90;;;;;;5022057;28;20187;-69
2022/04/10 11:09:59;;;;;;;2.03;0.97;;;8.50;99.90;;;;;;5025121;28;20245;-69
2022/04/10 11:12:49;;;;;;;3.27;1.57;;;8.40;99.90;;;;;;5022892;28;20597;-70
2022/04/10 11:15:23;;;;;;;1.47;0.90;;;8.70;99.90;;;;;;5023614;28;20633;-70
2022/04/10 11:17:50;;;;;;;3.33;1.30;;;9.00;99.90;;;;;;5024170;28;20221;-69
2022/04/10 11:20:19;;;;;;;3.40;0.90;;;9.10;99.90;;;;;;5020637;28;20329;-70
2022/04/10 11:22:47;;;;;;;3.63;2.00;;;9.20;99.90;;;;;;5026514;28;20221;-69
2022/04/10 11:25:13;;;;;;;5.57;2.53;;;9.50;99.90;;;;;;5031395;28;20286;-68
2022/04/10 11:27:45;;;;;;;7.60;2.90;;;9.70;99.90;;;;;;5022622;28;20195;-68
2022/04/10 11:30:13;;;;;;;2.70;1.33;;;9.90;99.90;;;;;;5020871;28;20198;-68
2022/04/10 11:32:45;;;;;;;5.87;3.10;;;9.50;99.90;;;;;;5022855;28;20748;-68
2022/04/10 11:35:15;;;;;;;2.50;0.80;;;9.00;99.90;;;;;;5026152;28;20218;-70
2022/04/10 11:37:44;;;;;;;2.53;1.00;;;8.50;99.90;;;;;;5025786;28;20183;-67
2022/04/10 11:40:11;;;;;;;3.03;1.10;;;7.90;99.90;;;;;;5025692;28;20206;-67
2022/04/10 11:42:37;;;;;;;2.17;1.07;;;8.10;99.90;;;;;;5025138;28;20261;-69
2022/04/10 11:45:03;;;;;;;2.73;1.00;;;8.50;99.90;;;;;;5026915;28;20183;-69
2022/04/10 11:47:31;;;;;;;2.13;0.90;;;8.90;99.90;;;;;;5016891;28;20202;-71
2022/04/10 11:49:58;;;;;;;4.43;1.30;;;9.10;99.90;;;;;;5023761;28;20267;-68
2022/04/10 11:52:23;;;;;;;4.20;1.47;;;9.00;99.90;;;;;;5026785;28;20193;-67
2022/04/10 11:54:52;;;;;;;3.27;1.07;;;8.90;99.90;;;;;;5021626;28;20195;-67
2022/04/10 11:57:19;;;;;;;2.13;0.80;;;9.30;99.90;;;;;;5022314;28;20301;-69
2022/04/10 11:59:44;;;;;;;3.27;1.60;;;9.60;99.90;;;;;;5033426;28;20700;-70
2022/04/10 12:02:12;;;;;;;3.20;1.10;;;9.80;99.90;;;;;;5026951;28;20203;-69
2022/04/10 12:04:40;;;;;;;2.67;0.90;;;9.70;99.90;;;;;;5029096;28;20183;-68
2022/04/10 12:07:18;;;;;;;4.13;1.10;;;9.90;99.90;;;;;;5027408;28;20622;-69
2022/04/10 12:09:48;;;;;;;2.20;1.30;;;10.20;99.90;;;;;;5016138;28;20207;-69
2022/04/10 12:12:19;;;;;;;2.67;0.90;;;10.30;99.90;;;;;;5005545;28;20186;-70
2022/04/10 12:14:44;;;;;;;3.37;1.10;;;10.40;99.90;;;;;;5027056;28;20214;-70
2022/04/10 12:17:11;;;;;;;2.73;0.90;;;10.90;99.90;;;;;;5023274;28;20597;-67
2022/04/10 12:19:37;;;;;;;1.47;0.60;;;10.50;99.90;;;;;;5021552;28;20214;-68
2022/04/10 12:22:04;;;;;;;3.03;1.20;;;10.10;99.90;;;;;;5020316;28;20210;-69
2022/04/10 12:24:30;;;;;;;2.97;1.53;;;9.70;99.90;;;;;;5003262;28;20261;-70
2022/04/10 12:26:58;;;;;;;2.40;0.87;;;9.40;99.90;;;;;;5020707;28;20714;-69
2022/04/10 12:29:24;;;;;;;1.50;0.87;;;9.20;99.90;;;;;;5021608;28;20195;-70
2022/04/10 12:31:51;;;;;;;3.43;1.50;;;9.00;99.90;;;;;;5027265;28;20191;-69
2022/04/10 12:34:17;;;;;;;3.23;1.50;;;9.00;99.90;;;;;;5021497;28;20190;-69
2022/04/10 12:36:50;;;;;;;4.47;1.20;;;8.70;99.90;;;;;;5020171;28;20202;-69
2022/04/10 12:39:27;;;;;;;1.77;1.00;;;8.40;99.90;;;;;;5020432;28;20285;-68
2022/04/10 12:42:09;;;;;;;1.47;0.50;;;8.40;99.90;;;;;;5033438;28;20208;-70
2022/04/10 12:44:39;;;;;;;4.20;1.00;;;8.50;99.90;;;;;;5006301;28;20202;-69
2022/04/10 12:47:07;;;;;;;1.33;0.70;;;9.10;99.90;;;;;;5025887;28;20197;-69
2022/04/10 12:49:33;;;;;;;2.57;0.80;;;9.60;99.90;;;;;;5006239;28;20211;-70
2022/04/10 12:52:03;;;;;;;1.83;0.83;;;10.10;99.90;;;;;;5033038;28;20257;-68
2022/04/10 12:54:42;;;;;;;1.67;0.60;;;10.10;99.90;;;;;;5020738;28;20179;-69
2022/04/10 12:57:24;;;;;;;0.77;0.60;;;9.90;99.90;;;;;;5021461;28;20697;-69
2022/04/10 12:59:50;;;;;;;2.30;0.70;;;9.90;99.90;;;;;;5021639;28;20210;-68
2022/04/10 13:02:29;;;;;;;1.00;0.70;;;9.80;99.90;;;;;;5022040;28;20203;-71
2022/04/10 13:05:09;;;;;;;0.90;0.50;;;9.90;99.90;;;;;;5025373;28;20186;-69